THA216 VTSP-VTBS
Flight info
| Callsign | THA216 |
|---|---|
| Flight time | 1h 7m |
| Altitude | 39000 |
| Route | EMRIT1A EMRIT Y99 NONEL Y98 LEBIM LEBIM1D |
| Aircraft | B77W/H-SDE1E2E3FGHIJ2J3J4J5M1RWXY/LB1D1 |
Departure
| Time | 2026-05-08 20:13 |
|---|---|
| Airport | Phuket International Airport (VTSP) |
Arrival
| Time | 2026-05-08 21:21 |
|---|---|
| Airport | Suvarnabhumi Airport (VTBS) |
| Time | Latitude | Longitude | Altitude | Speed | Heading |
|---|---|---|---|---|---|
| 2026-05-08 19:25 | 8.10984 | 98.30635 | 43 ft | 0 kts | 174° |
| 2026-05-08 20:04 | 8.10990 | 98.30635 | 43 ft | 2 kts | 174° |
| 2026-05-08 20:04 | 8.11005 | 98.30634 | 43 ft | 2 kts | 174° |
| 2026-05-08 20:04 | 8.11020 | 98.30633 | 43 ft | 2 kts | 190° |
| 2026-05-08 20:05 | 8.11034 | 98.30637 | 43 ft | 2 kts | 213° |
| 2026-05-08 20:05 | 8.11046 | 98.30647 | 43 ft | 2 kts | 232° |
| 2026-05-08 20:05 | 8.11054 | 98.30660 | 43 ft | 2 kts | 251° |
| 2026-05-08 20:05 | 8.11056 | 98.30670 | 43 ft | 0 kts | 264° |
| 2026-05-08 20:06 | 8.11056 | 98.30674 | 43 ft | 0 kts | 265° |
| 2026-05-08 20:09 | 8.11056 | 98.30673 | 43 ft | 0 kts | 265° |
| 2026-05-08 20:09 | 8.11055 | 98.30662 | 43 ft | 3 kts | 265° |
| 2026-05-08 20:10 | 8.11052 | 98.30624 | 42 ft | 7 kts | 264° |
| 2026-05-08 20:10 | 8.11045 | 98.30558 | 41 ft | 11 kts | 264° |
| 2026-05-08 20:10 | 8.11037 | 98.30467 | 39 ft | 14 kts | 266° |
| 2026-05-08 20:10 | 8.11045 | 98.30390 | 36 ft | 7 kts | 292° |
| 2026-05-08 20:11 | 8.11068 | 98.30361 | 35 ft | 4 kts | 333° |
| 2026-05-08 20:11 | 8.11072 | 98.30359 | 35 ft | 0 kts | 336° |
| 2026-05-08 20:12 | 8.11085 | 98.30354 | 35 ft | 6 kts | 342° |
| 2026-05-08 20:12 | 8.11143 | 98.30349 | 35 ft | 10 kts | 13° |
| 2026-05-08 20:12 | 8.11192 | 98.30406 | 36 ft | 0 kts | 74° |
| 2026-05-08 20:12 | 8.11197 | 98.30427 | 36 ft | 8 kts | 78° |
| 2026-05-08 20:13 | 8.11217 | 98.30589 | 39 ft | 54 kts | 84° |
| 2026-05-08 20:13 | 8.11281 | 98.31234 | 53 ft | 128 kts | 84° |
| 2026-05-08 20:13 | 8.11384 | 98.32323 | 315 ft | 168 kts | 84° |
| 2026-05-08 20:13 | 8.11495 | 98.33407 | 1226 ft | 154 kts | 84° |
| 2026-05-08 20:14 | 8.11598 | 98.34493 | 1738 ft | 162 kts | 85° |
| 2026-05-08 20:14 | 8.11702 | 98.35702 | 2070 ft | 187 kts | 84° |
| 2026-05-08 20:14 | 8.11833 | 98.37099 | 2511 ft | 207 kts | 84° |
| 2026-05-08 20:14 | 8.11972 | 98.38576 | 3103 ft | 221 kts | 84° |
| 2026-05-08 20:15 | 8.12124 | 98.40196 | 3671 ft | 238 kts | 85° |
| 2026-05-08 20:15 | 8.12284 | 98.41903 | 4265 ft | 254 kts | 84° |
| 2026-05-08 20:15 | 8.12452 | 98.43695 | 5013 ft | 262 kts | 84° |
| 2026-05-08 20:15 | 8.12624 | 98.45528 | 5971 ft | 262 kts | 84° |
| 2026-05-08 20:16 | 8.12795 | 98.47358 | 6801 ft | 266 kts | 84° |
| 2026-05-08 20:16 | 8.12970 | 98.49223 | 7595 ft | 271 kts | 84° |
| 2026-05-08 20:16 | 8.13146 | 98.51106 | 8409 ft | 273 kts | 84° |
| 2026-05-08 20:16 | 8.13325 | 98.53015 | 9155 ft | 278 kts | 84° |
| 2026-05-08 20:17 | 8.13506 | 98.54951 | 9968 ft | 280 kts | 84° |
| 2026-05-08 20:17 | 8.13692 | 98.56935 | 10545 ft | 292 kts | 84° |
| 2026-05-08 20:17 | 8.13890 | 98.59051 | 10973 ft | 311 kts | 84° |
| 2026-05-08 20:17 | 8.13978 | 98.61279 | 11487 ft | 327 kts | 92° |
| 2026-05-08 20:18 | 8.13681 | 98.63607 | 11985 ft | 344 kts | 99° |
| 2026-05-08 20:18 | 8.13252 | 98.66031 | 12538 ft | 359 kts | 99° |
| 2026-05-08 20:18 | 8.12801 | 98.68562 | 13120 ft | 374 kts | 99° |
| 2026-05-08 20:18 | 8.12338 | 98.71180 | 13785 ft | 386 kts | 99° |
| 2026-05-08 20:19 | 8.11865 | 98.73862 | 14646 ft | 393 kts | 99° |
| 2026-05-08 20:19 | 8.11382 | 98.76609 | 15675 ft | 396 kts | 99° |
| 2026-05-08 20:19 | 8.10902 | 98.79336 | 16658 ft | 399 kts | 99° |
| 2026-05-08 20:19 | 8.10607 | 98.82134 | 17487 ft | 406 kts | 91° |
| 2026-05-08 20:20 | 8.10609 | 98.84995 | 18295 ft | 412 kts | 89° |
| 2026-05-08 20:20 | 8.10643 | 98.87893 | 19138 ft | 417 kts | 89° |
| 2026-05-08 20:20 | 8.10677 | 98.90822 | 19975 ft | 421 kts | 89° |
| 2026-05-08 20:20 | 8.10710 | 98.93776 | 20714 ft | 427 kts | 90° |
| 2026-05-08 20:21 | 8.10742 | 98.96807 | 21442 ft | 432 kts | 90° |
| 2026-05-08 20:21 | 8.10773 | 98.99828 | 22163 ft | 437 kts | 90° |
| 2026-05-08 20:21 | 8.10803 | 99.02902 | 22901 ft | 441 kts | 90° |
| 2026-05-08 20:21 | 8.10833 | 99.06020 | 23516 ft | 448 kts | 89° |
| 2026-05-08 20:22 | 8.11244 | 99.09129 | 24074 ft | 455 kts | 76° |
| 2026-05-08 20:22 | 8.12114 | 99.12258 | 24770 ft | 460 kts | 71° |
| 2026-05-08 20:22 | 8.13386 | 99.15218 | 25494 ft | 464 kts | 62° |
| 2026-05-08 20:22 | 8.15123 | 99.17981 | 26149 ft | 470 kts | 53° |
| 2026-05-08 20:23 | 8.17309 | 99.20473 | 26780 ft | 477 kts | 44° |
| 2026-05-08 20:23 | 8.19886 | 99.22596 | 27407 ft | 484 kts | 35° |
| 2026-05-08 20:23 | 8.22852 | 99.24307 | 28054 ft | 490 kts | 26° |
| 2026-05-08 20:23 | 8.26060 | 99.25500 | 28686 ft | 496 kts | 16° |
| 2026-05-08 20:24 | 8.29432 | 99.26267 | 29344 ft | 499 kts | 14° |
| 2026-05-08 20:24 | 8.32741 | 99.27341 | 30190 ft | 498 kts | 23° |
| 2026-05-08 20:24 | 8.35826 | 99.28846 | 31229 ft | 491 kts | 28° |
| 2026-05-08 20:24 | 8.38901 | 99.30270 | 32200 ft | 486 kts | 21° |
| 2026-05-08 20:25 | 8.42140 | 99.31376 | 33143 ft | 483 kts | 17° |
| 2026-05-08 20:25 | 8.45384 | 99.32223 | 34035 ft | 481 kts | 13° |
| 2026-05-08 20:25 | 8.48651 | 99.32892 | 34962 ft | 479 kts | 11° |
| 2026-05-08 20:25 | 8.51927 | 99.33427 | 35848 ft | 476 kts | 9° |
| 2026-05-08 20:26 | 8.55241 | 99.33871 | 36625 ft | 474 kts | 8° |
| 2026-05-08 20:26 | 8.58527 | 99.34242 | 37260 ft | 474 kts | 7° |
| 2026-05-08 20:26 | 8.61833 | 99.34560 | 37860 ft | 473 kts | 6° |
| 2026-05-08 20:26 | 8.65195 | 99.34841 | 38467 ft | 472 kts | 6° |
| 2026-05-08 20:27 | 8.68473 | 99.35089 | 38881 ft | 474 kts | 5° |
| 2026-05-08 20:27 | 8.71521 | 99.35297 | 38851 ft | 474 kts | 5° |
| 2026-05-08 20:27 | 8.78163 | 99.35705 | 38867 ft | 472 kts | 4° |
| 2026-05-08 20:28 | 8.84611 | 99.36067 | 38857 ft | 472 kts | 4° |
| 2026-05-08 20:28 | 8.91206 | 99.36419 | 38851 ft | 471 kts | 4° |
| 2026-05-08 20:29 | 8.97797 | 99.36760 | 38847 ft | 471 kts | 4° |
| 2026-05-08 20:29 | 9.04398 | 99.37096 | 38852 ft | 471 kts | 4° |
| 2026-05-08 20:30 | 9.10967 | 99.37428 | 38851 ft | 473 kts | 4° |
| 2026-05-08 20:30 | 9.17652 | 99.37766 | 38856 ft | 481 kts | 4° |
| 2026-05-08 20:31 | 9.24375 | 99.38337 | 38853 ft | 486 kts | 12° |
| 2026-05-08 20:31 | 9.30935 | 99.40206 | 38845 ft | 486 kts | 18° |
| 2026-05-08 20:32 | 9.37469 | 99.42241 | 38841 ft | 486 kts | 18° |
| 2026-05-08 20:32 | 9.43964 | 99.44263 | 38848 ft | 486 kts | 18° |
| 2026-05-08 20:33 | 9.50477 | 99.46291 | 38850 ft | 486 kts | 18° |
| 2026-05-08 20:33 | 9.56996 | 99.48319 | 38849 ft | 488 kts | 18° |
| 2026-05-08 20:34 | 9.63561 | 99.50363 | 38846 ft | 487 kts | 18° |
| 2026-05-08 20:35 | 9.73415 | 99.53432 | 38846 ft | 488 kts | 18° |
| 2026-05-08 20:35 | 9.79876 | 99.55445 | 38847 ft | 488 kts | 18° |
| 2026-05-08 20:36 | 9.86403 | 99.57480 | 38847 ft | 488 kts | 18° |
| 2026-05-08 20:36 | 9.92932 | 99.59515 | 38846 ft | 489 kts | 18° |
| 2026-05-08 20:37 | 9.99509 | 99.61567 | 38846 ft | 489 kts | 18° |
| 2026-05-08 20:37 | 10.06055 | 99.63610 | 38842 ft | 489 kts | 18° |
| 2026-05-08 20:38 | 10.12570 | 99.65644 | 38837 ft | 489 kts | 18° |
| 2026-05-08 20:38 | 10.19130 | 99.67693 | 38838 ft | 489 kts | 18° |
| 2026-05-08 20:39 | 10.25662 | 99.69734 | 38838 ft | 488 kts | 18° |
| 2026-05-08 20:39 | 10.32189 | 99.71774 | 38843 ft | 488 kts | 18° |
| 2026-05-08 20:40 | 10.38783 | 99.73837 | 38841 ft | 489 kts | 18° |
| 2026-05-08 20:40 | 10.45314 | 99.75880 | 38849 ft | 489 kts | 18° |
| 2026-05-08 20:41 | 10.51845 | 99.77925 | 38848 ft | 489 kts | 18° |
| 2026-05-08 20:41 | 10.58414 | 99.79982 | 38843 ft | 488 kts | 18° |
| 2026-05-08 20:42 | 10.64958 | 99.82032 | 38834 ft | 487 kts | 18° |
| 2026-05-08 20:42 | 10.71475 | 99.84074 | 38834 ft | 488 kts | 18° |
| 2026-05-08 20:43 | 10.78012 | 99.86124 | 38828 ft | 489 kts | 18° |
| 2026-05-08 20:43 | 10.84594 | 99.88190 | 38826 ft | 489 kts | 18° |
| 2026-05-08 20:44 | 10.90981 | 99.90846 | 38834 ft | 488 kts | 29° |
| 2026-05-08 20:44 | 10.96975 | 99.94205 | 38826 ft | 488 kts | 30° |
| 2026-05-08 20:45 | 11.02990 | 99.97591 | 38828 ft | 488 kts | 30° |
| 2026-05-08 20:45 | 11.08996 | 100.00973 | 38828 ft | 487 kts | 30° |
| 2026-05-08 20:46 | 11.14944 | 100.04322 | 38825 ft | 486 kts | 30° |
| 2026-05-08 20:46 | 11.20925 | 100.07691 | 38828 ft | 487 kts | 30° |
| 2026-05-08 20:47 | 11.26888 | 100.11051 | 38830 ft | 488 kts | 30° |
| 2026-05-08 20:47 | 11.32898 | 100.14439 | 38839 ft | 488 kts | 30° |
| 2026-05-08 20:48 | 11.38887 | 100.17817 | 38846 ft | 487 kts | 30° |
| 2026-05-08 20:48 | 11.44911 | 100.21216 | 38844 ft | 486 kts | 30° |
| 2026-05-08 20:49 | 11.50864 | 100.24577 | 38846 ft | 485 kts | 30° |
| 2026-05-08 20:49 | 11.56797 | 100.27927 | 38848 ft | 486 kts | 30° |
| 2026-05-08 20:50 | 11.62768 | 100.31303 | 38846 ft | 486 kts | 30° |
| 2026-05-08 20:50 | 11.68691 | 100.34653 | 38849 ft | 486 kts | 30° |
| 2026-05-08 20:51 | 11.74675 | 100.38039 | 38848 ft | 487 kts | 30° |
| 2026-05-08 20:51 | 11.80624 | 100.41407 | 38844 ft | 486 kts | 29° |
| 2026-05-08 20:52 | 11.86961 | 100.43842 | 38841 ft | 487 kts | 12° |
| 2026-05-08 20:52 | 11.93749 | 100.44451 | 38841 ft | 488 kts | 2° |
| 2026-05-08 20:53 | 12.00557 | 100.44621 | 38823 ft | 486 kts | 2° |
| 2026-05-08 20:53 | 12.03969 | 100.44705 | 38270 ft | 481 kts | 2° |
| 2026-05-08 20:53 | 12.07338 | 100.44788 | 37276 ft | 484 kts | 2° |
| 2026-05-08 20:53 | 12.10709 | 100.44872 | 36403 ft | 485 kts | 2° |
| 2026-05-08 20:54 | 12.14038 | 100.44955 | 35615 ft | 485 kts | 2° |
| 2026-05-08 20:54 | 12.17451 | 100.45041 | 34807 ft | 484 kts | 2° |
| 2026-05-08 20:54 | 12.20857 | 100.45126 | 33941 ft | 485 kts | 2° |
| 2026-05-08 20:54 | 12.24255 | 100.45212 | 33073 ft | 485 kts | 2° |
| 2026-05-08 20:55 | 12.27653 | 100.45297 | 32221 ft | 486 kts | 3° |
| 2026-05-08 20:55 | 12.31066 | 100.45383 | 31366 ft | 487 kts | 3° |
| 2026-05-08 20:55 | 12.34503 | 100.45470 | 30484 ft | 489 kts | 3° |
| 2026-05-08 20:55 | 12.37915 | 100.45555 | 29938 ft | 483 kts | 3° |
| 2026-05-08 20:56 | 12.41247 | 100.45639 | 29446 ft | 477 kts | 3° |
| 2026-05-08 20:56 | 12.44597 | 100.45723 | 28898 ft | 476 kts | 3° |
| 2026-05-08 20:56 | 12.47950 | 100.45809 | 28322 ft | 486 kts | 2° |
| 2026-05-08 20:56 | 12.51381 | 100.45895 | 27729 ft | 485 kts | 2° |
| 2026-05-08 20:57 | 12.54721 | 100.45979 | 27136 ft | 481 kts | 2° |
| 2026-05-08 20:57 | 12.58086 | 100.46064 | 26540 ft | 477 kts | 2° |
| 2026-05-08 20:57 | 12.61427 | 100.46149 | 25942 ft | 473 kts | 2° |
| 2026-05-08 20:57 | 12.64700 | 100.46231 | 25345 ft | 469 kts | 2° |
| 2026-05-08 20:58 | 12.67983 | 100.46314 | 24747 ft | 465 kts | 2° |
| 2026-05-08 20:58 | 12.71240 | 100.46396 | 24140 ft | 461 kts | 2° |
| 2026-05-08 20:58 | 12.74457 | 100.46478 | 23540 ft | 457 kts | 2° |
| 2026-05-08 20:58 | 12.77653 | 100.46558 | 22949 ft | 454 kts | 2° |
| 2026-05-08 20:59 | 12.80778 | 100.46638 | 22350 ft | 450 kts | 2° |
| 2026-05-08 20:59 | 12.83929 | 100.46717 | 21756 ft | 447 kts | 2° |
| 2026-05-08 20:59 | 12.87042 | 100.46796 | 21155 ft | 444 kts | 2° |
| 2026-05-08 20:59 | 12.90171 | 100.46876 | 20533 ft | 441 kts | 2° |
| 2026-05-08 21:00 | 12.93257 | 100.46954 | 19920 ft | 439 kts | 2° |
| 2026-05-08 21:00 | 12.96275 | 100.47030 | 19308 ft | 436 kts | 2° |
| 2026-05-08 21:00 | 12.99329 | 100.47108 | 18686 ft | 433 kts | 2° |
| 2026-05-08 21:00 | 13.02378 | 100.47298 | 18106 ft | 428 kts | 9° |
| 2026-05-08 21:01 | 13.05218 | 100.47995 | 17931 ft | 411 kts | 19° |
| 2026-05-08 21:01 | 13.07798 | 100.49162 | 17810 ft | 395 kts | 30° |
| 2026-05-08 21:01 | 13.10060 | 100.50737 | 17457 ft | 387 kts | 40° |
| 2026-05-08 21:01 | 13.12024 | 100.52644 | 16866 ft | 387 kts | 46° |
| 2026-05-08 21:02 | 13.13861 | 100.54653 | 16290 ft | 386 kts | 48° |
| 2026-05-08 21:02 | 13.15651 | 100.56702 | 15744 ft | 384 kts | 49° |
| 2026-05-08 21:02 | 13.17382 | 100.58746 | 15227 ft | 381 kts | 50° |
| 2026-05-08 21:02 | 13.19080 | 100.60799 | 14720 ft | 379 kts | 51° |
| 2026-05-08 21:03 | 13.20779 | 100.62892 | 14202 ft | 376 kts | 51° |
| 2026-05-08 21:03 | 13.22420 | 100.64938 | 13749 ft | 371 kts | 52° |
| 2026-05-08 21:03 | 13.24025 | 100.66952 | 13656 ft | 356 kts | 52° |
| 2026-05-08 21:03 | 13.25583 | 100.68914 | 13607 ft | 348 kts | 52° |
| 2026-05-08 21:04 | 13.27101 | 100.70837 | 13501 ft | 344 kts | 52° |
| 2026-05-08 21:04 | 13.28602 | 100.72750 | 13368 ft | 342 kts | 53° |
| 2026-05-08 21:04 | 13.30082 | 100.74641 | 13240 ft | 341 kts | 53° |
| 2026-05-08 21:04 | 13.31564 | 100.76537 | 13102 ft | 340 kts | 53° |
| 2026-05-08 21:05 | 13.33052 | 100.78442 | 12959 ft | 339 kts | 53° |
| 2026-05-08 21:05 | 13.34533 | 100.80341 | 12834 ft | 347 kts | 53° |
| 2026-05-08 21:05 | 13.36094 | 100.82344 | 12696 ft | 366 kts | 53° |
| 2026-05-08 21:05 | 13.37706 | 100.84412 | 12545 ft | 372 kts | 52° |
| 2026-05-08 21:06 | 13.39322 | 100.86483 | 12392 ft | 370 kts | 52° |
| 2026-05-08 21:06 | 13.41139 | 100.88385 | 12246 ft | 372 kts | 40° |
| 2026-05-08 21:06 | 13.43315 | 100.89805 | 12116 ft | 372 kts | 27° |
| 2026-05-08 21:06 | 13.45787 | 100.90717 | 12105 ft | 371 kts | 18° |
| 2026-05-08 21:07 | 13.48231 | 100.91409 | 12090 ft | 353 kts | 17° |
| 2026-05-08 21:07 | 13.50560 | 100.92052 | 12082 ft | 336 kts | 17° |
| 2026-05-08 21:07 | 13.52762 | 100.92659 | 12081 ft | 320 kts | 17° |
| 2026-05-08 21:07 | 13.54876 | 100.93240 | 12077 ft | 305 kts | 17° |
| 2026-05-08 21:08 | 13.56910 | 100.93798 | 12068 ft | 290 kts | 17° |
| 2026-05-08 21:08 | 13.58855 | 100.94321 | 12060 ft | 292 kts | 13° |
| 2026-05-08 21:08 | 13.60885 | 100.94325 | 12037 ft | 297 kts | 348° |
| 2026-05-08 21:08 | 13.62775 | 100.93425 | 12009 ft | 301 kts | 323° |
| 2026-05-08 21:09 | 13.64157 | 100.91769 | 11738 ft | 306 kts | 297° |
| 2026-05-08 21:09 | 13.64839 | 100.89696 | 11369 ft | 306 kts | 284° |
| 2026-05-08 21:09 | 13.65089 | 100.87513 | 10982 ft | 305 kts | 264° |
| 2026-05-08 21:09 | 13.64497 | 100.85453 | 10621 ft | 302 kts | 240° |
| 2026-05-08 21:10 | 13.63131 | 100.83819 | 10251 ft | 297 kts | 214° |
| 2026-05-08 21:10 | 13.61330 | 100.82818 | 9889 ft | 294 kts | 200° |
| 2026-05-08 21:10 | 13.59396 | 100.82130 | 9525 ft | 293 kts | 194° |
| 2026-05-08 21:10 | 13.57423 | 100.81548 | 9163 ft | 293 kts | 193° |
| 2026-05-08 21:11 | 13.55441 | 100.80997 | 8800 ft | 293 kts | 193° |
| 2026-05-08 21:11 | 13.53440 | 100.80450 | 8444 ft | 293 kts | 193° |
| 2026-05-08 21:11 | 13.51481 | 100.79915 | 8094 ft | 293 kts | 193° |
| 2026-05-08 21:11 | 13.49509 | 100.79376 | 7741 ft | 292 kts | 193° |
| 2026-05-08 21:12 | 13.47528 | 100.78834 | 7530 ft | 286 kts | 193° |
| 2026-05-08 21:12 | 13.45657 | 100.78322 | 7485 ft | 273 kts | 193° |
| 2026-05-08 21:12 | 13.43853 | 100.77826 | 7443 ft | 259 kts | 193° |
| 2026-05-08 21:12 | 13.42163 | 100.77362 | 7418 ft | 244 kts | 193° |
| 2026-05-08 21:13 | 13.40673 | 100.76616 | 7309 ft | 230 kts | 220° |
| 2026-05-08 21:13 | 13.39760 | 100.75330 | 7161 ft | 217 kts | 242° |
| 2026-05-08 21:13 | 13.39426 | 100.73853 | 6838 ft | 214 kts | 270° |
| 2026-05-08 21:13 | 13.39586 | 100.72375 | 6188 ft | 212 kts | 282° |
| 2026-05-08 21:14 | 13.39931 | 100.70901 | 5521 ft | 208 kts | 286° |
| 2026-05-08 21:14 | 13.40292 | 100.69489 | 4878 ft | 205 kts | 285° |
| 2026-05-08 21:14 | 13.40791 | 100.68141 | 4218 ft | 201 kts | 308° |
| 2026-05-08 21:14 | 13.41878 | 100.67339 | 3646 ft | 190 kts | 346° |
| 2026-05-08 21:15 | 13.43166 | 100.67283 | 3501 ft | 184 kts | 8° |
| 2026-05-08 21:15 | 13.44434 | 100.67519 | 3485 ft | 182 kts | 15° |
| 2026-05-08 21:15 | 13.45671 | 100.67831 | 3484 ft | 182 kts | 17° |
| 2026-05-08 21:15 | 13.46884 | 100.68186 | 3483 ft | 182 kts | 18° |
| 2026-05-08 21:16 | 13.48122 | 100.68531 | 3483 ft | 182 kts | 17° |
| 2026-05-08 21:16 | 13.49344 | 100.68851 | 3422 ft | 179 kts | 16° |
| 2026-05-08 21:16 | 13.50527 | 100.69154 | 3202 ft | 173 kts | 15° |
| 2026-05-08 21:16 | 13.51705 | 100.69456 | 2988 ft | 170 kts | 16° |
| 2026-05-08 21:17 | 13.52838 | 100.69749 | 2782 ft | 168 kts | 16° |
| 2026-05-08 21:17 | 13.53987 | 100.70048 | 2569 ft | 168 kts | 15° |
| 2026-05-08 21:17 | 13.55124 | 100.70343 | 2357 ft | 167 kts | 15° |
| 2026-05-08 21:17 | 13.56272 | 100.70641 | 2141 ft | 167 kts | 15° |
| 2026-05-08 21:18 | 13.57401 | 100.70936 | 1927 ft | 166 kts | 15° |
| 2026-05-08 21:18 | 13.58530 | 100.71230 | 1711 ft | 166 kts | 15° |
| 2026-05-08 21:18 | 13.59665 | 100.71526 | 1495 ft | 165 kts | 15° |
| 2026-05-08 21:18 | 13.60796 | 100.71821 | 1274 ft | 165 kts | 15° |
| 2026-05-08 21:19 | 13.61912 | 100.72111 | 1059 ft | 164 kts | 15° |
| 2026-05-08 21:19 | 13.63026 | 100.72402 | 846 ft | 163 kts | 15° |
| 2026-05-08 21:19 | 13.64141 | 100.72697 | 629 ft | 163 kts | 15° |
| 2026-05-08 21:19 | 13.65235 | 100.73002 | 418 ft | 162 kts | 15° |
| 2026-05-08 21:20 | 13.66338 | 100.73277 | 221 ft | 161 kts | 15° |
| 2026-05-08 21:20 | 13.67444 | 100.73560 | 56 ft | 161 kts | 15° |
| 2026-05-08 21:20 | 13.68487 | 100.73848 | 15 ft | 133 kts | 16° |
| 2026-05-08 21:20 | 13.69244 | 100.74035 | 15 ft | 88 kts | 15° |
| 2026-05-08 21:21 | 13.69725 | 100.74146 | 15 ft | 62 kts | 11° |
| 2026-05-08 21:21 | 13.70065 | 100.74245 | 15 ft | 36 kts | 17° |
| 2026-05-08 21:21 | 13.70235 | 100.74351 | 15 ft | 9 kts | 97° |
| 2026-05-08 21:21 | 13.70235 | 100.74353 | 15 ft | 0 kts | 100° |
| 2026-05-08 21:23 | 13.70233 | 100.74365 | 15 ft | 0 kts | 100° |
| 2026-05-08 21:24 | 13.70233 | 100.74368 | 15 ft | 1 kts | 100° |
| 2026-05-08 21:24 | 13.70226 | 100.74395 | 15 ft | 5 kts | 110° |
| 2026-05-08 21:24 | 13.70194 | 100.74437 | 15 ft | 9 kts | 144° |
| 2026-05-08 21:25 | 13.70123 | 100.74452 | 15 ft | 12 kts | 177° |
| 2026-05-08 21:25 | 13.70031 | 100.74436 | 15 ft | 14 kts | 200° |
| 2026-05-08 21:25 | 13.69927 | 100.74398 | 15 ft | 16 kts | 198° |
| 2026-05-08 21:25 | 13.69804 | 100.74361 | 15 ft | 19 kts | 195° |
| 2026-05-08 21:26 | 13.69669 | 100.74325 | 15 ft | 20 kts | 195° |
| 2026-05-08 21:26 | 13.69522 | 100.74285 | 15 ft | 22 kts | 192° |
| 2026-05-08 21:26 | 13.69362 | 100.74249 | 15 ft | 24 kts | 193° |
| 2026-05-08 21:26 | 13.69190 | 100.74206 | 15 ft | 25 kts | 194° |
| 2026-05-08 21:27 | 13.69012 | 100.74156 | 15 ft | 26 kts | 195° |
| 2026-05-08 21:27 | 13.68914 | 100.74132 | 15 ft | 14 kts | 193° |
| 2026-05-08 21:27 | 13.68830 | 100.74112 | 15 ft | 0 kts | 193° |
| 2026-05-08 21:27 | 13.68814 | 100.74108 | 15 ft | 4 kts | 193° |
| 2026-05-08 21:28 | 13.68770 | 100.74099 | 15 ft | 8 kts | 189° |
| 2026-05-08 21:28 | 13.68710 | 100.74120 | 15 ft | 11 kts | 132° |
| 2026-05-08 21:28 | 13.68703 | 100.74129 | 15 ft | 2 kts | 121° |
| 2026-05-08 21:28 | 13.68699 | 100.74154 | 15 ft | 5 kts | 81° |
| 2026-05-08 21:29 | 13.68729 | 100.74189 | 15 ft | 8 kts | 24° |
| 2026-05-08 21:29 | 13.68785 | 100.74228 | 15 ft | 11 kts | 61° |
| 2026-05-08 21:29 | 13.68790 | 100.74315 | 15 ft | 13 kts | 100° |
| 2026-05-08 21:29 | 13.68763 | 100.74419 | 15 ft | 16 kts | 106° |
| 2026-05-08 21:30 | 13.68731 | 100.74538 | 15 ft | 18 kts | 105° |
| 2026-05-08 21:30 | 13.68708 | 100.74648 | 15 ft | 14 kts | 91° |
| 2026-05-08 21:30 | 13.68764 | 100.74729 | 15 ft | 16 kts | 20° |
| 2026-05-08 21:30 | 13.68882 | 100.74764 | 15 ft | 18 kts | 13° |
| 2026-05-08 21:31 | 13.69012 | 100.74801 | 15 ft | 15 kts | 34° |
| 2026-05-08 21:31 | 13.69043 | 100.74889 | 15 ft | 15 kts | 99° |
| 2026-05-08 21:31 | 13.69011 | 100.75004 | 15 ft | 17 kts | 105° |
| 2026-05-08 21:31 | 13.68994 | 100.75069 | 15 ft | 1 kts | 104° |
| 2026-05-08 21:32 | 13.68990 | 100.75090 | 15 ft | 4 kts | 95° |
| 2026-05-08 21:32 | 13.69007 | 100.75126 | 15 ft | 4 kts | 38° |
| 2026-05-08 21:32 | 13.69013 | 100.75130 | 15 ft | 0 kts | 30° |
| 2026-05-08 21:32 | 13.69020 | 100.75134 | 15 ft | 1 kts | 31° |
| 2026-05-08 21:33 | 13.69031 | 100.75140 | 15 ft | 2 kts | 28° |
| 2026-05-08 21:33 | 13.69037 | 100.75143 | 15 ft | 0 kts | 22° |
| 2026-05-08 21:33 | 13.69043 | 100.75146 | 15 ft | 0 kts | 20° |